Time;durP1;ratioP1;P1;durP2;ratioP2;P2;SDS_P1;SDS_P2;PMS_P1;PMS_P2;Temp;Humidity;BMP_temperature;BMP_pressure;BME280_temperature;BME280_humidity;BME280_pressure;Samples;Min_cycle;Max_cycle;Signal;HPM_P1;HPM_P2
2022/07/02 00:02:23;;;;;;;2.90;2.70;;;16.70;99.90;;;;;;5113454;28;20741;-70
2022/07/02 00:04:57;;;;;;;3.22;2.95;;;16.70;99.90;;;;;;5112927;28;20193;-71
2022/07/02 00:07:25;;;;;;;3.88;2.92;;;16.70;99.90;;;;;;5113079;28;20311;-71
2022/07/02 00:09:55;;;;;;;3.30;3.10;;;16.60;99.90;;;;;;5113473;28;20312;-74
2022/07/02 00:12:22;;;;;;;3.05;2.85;;;16.60;99.90;;;;;;5113448;28;20205;-72
2022/07/02 00:14:52;;;;;;;2.97;2.78;;;16.50;99.90;;;;;;5112795;28;20215;-72
2022/07/02 00:17:19;;;;;;;3.30;3.03;;;16.50;99.90;;;;;;5113077;28;20294;-73
2022/07/02 00:19:48;;;;;;;3.35;3.05;;;16.40;99.90;;;;;;5113443;28;20320;-73
2022/07/02 00:22:16;;;;;;;4.35;2.60;;;16.40;99.90;;;;;;5113396;28;20220;-72
2022/07/02 00:24:42;;;;;;;3.15;2.95;;;16.30;99.90;;;;;;5112664;28;20219;-73
2022/07/02 00:27:10;;;;;;;2.88;2.67;;;16.40;99.90;;;;;;5113068;28;20291;-69
2022/07/02 00:29:42;;;;;;;2.75;2.55;;;16.30;99.90;;;;;;5112988;28;20232;-72
2022/07/02 00:32:09;;;;;;;2.80;2.60;;;16.30;99.90;;;;;;5113060;28;20208;-72
2022/07/02 00:34:38;;;;;;;2.38;2.28;;;16.30;99.90;;;;;;5112931;28;20211;-70
2022/07/02 00:37:08;;;;;;;2.30;2.20;;;16.30;99.90;;;;;;5113073;28;20311;-73
2022/07/02 00:39:35;;;;;;;3.10;2.80;;;16.30;99.90;;;;;;5112623;28;20224;-73
2022/07/02 00:42:03;;;;;;;2.60;2.40;;;16.20;99.90;;;;;;5113060;28;20288;-72
2022/07/02 00:44:31;;;;;;;2.80;2.60;;;16.10;99.90;;;;;;5112577;28;20829;-73
2022/07/02 00:47:03;;;;;;;2.70;2.50;;;16.10;99.90;;;;;;5112671;28;20295;-72
2022/07/02 00:49:32;;;;;;;2.80;2.60;;;16.20;99.90;;;;;;5112899;28;20235;-72
2022/07/02 00:51:59;;;;;;;2.97;2.80;;;16.10;99.90;;;;;;5112848;28;20204;-72
2022/07/02 00:54:28;;;;;;;3.10;2.90;;;16.20;99.90;;;;;;5112402;28;20243;-71
2022/07/02 00:56:55;;;;;;;2.83;2.63;;;16.20;99.90;;;;;;5112592;28;20296;-72
2022/07/02 00:59:23;;;;;;;2.60;2.40;;;16.20;99.90;;;;;;5112795;28;20574;-70
2022/07/02 01:01:50;;;;;;;2.78;2.58;;;16.20;99.90;;;;;;5112624;28;20233;-72
2022/07/02 01:04:17;;;;;;;3.30;2.55;;;16.20;99.90;;;;;;5112657;28;20599;-71
2022/07/02 01:06:46;;;;;;;3.15;2.90;;;16.10;99.90;;;;;;5112542;28;20211;-72
2022/07/02 01:12:02;;;;;;;2.75;2.60;;;15.90;99.90;;;;;;5112756;28;20204;-72
2022/07/02 01:14:29;;;;;;;2.80;2.60;;;15.90;99.90;;;;;;5112384;28;20299;-72
2022/07/02 01:16:57;;;;;;;2.58;2.47;;;16.00;99.90;;;;;;5112664;28;20619;-73
2022/07/02 01:19:24;;;;;;;2.90;2.70;;;16.00;99.90;;;;;;5112692;28;20296;-72
2022/07/02 01:22:15;;;;;;;2.75;2.55;;;16.10;99.90;;;;;;5112665;28;20292;-72
2022/07/02 01:24:42;;;;;;;2.97;2.78;;;16.00;99.90;;;;;;5112319;28;20291;-71
2022/07/02 01:27:09;;;;;;;2.83;2.60;;;16.00;99.90;;;;;;5112817;28;20291;-69
2022/07/02 01:29:36;;;;;;;3.00;2.70;;;16.00;99.90;;;;;;5112417;28;20320;-70
2022/07/02 01:32:03;;;;;;;3.00;2.80;;;16.00;99.90;;;;;;5113672;28;20295;-71
2022/07/02 01:34:34;;;;;;;2.80;2.60;;;15.90;99.90;;;;;;5116034;28;20291;-72
2022/07/02 01:37:00;;;;;;;3.08;2.80;;;16.00;99.90;;;;;;5116005;28;20283;-70
2022/07/02 01:39:29;;;;;;;2.70;2.50;;;16.00;99.90;;;;;;5116285;28;20294;-71
2022/07/02 01:41:55;;;;;;;2.70;2.50;;;16.00;99.90;;;;;;5116341;28;20216;-70
2022/07/02 01:44:22;;;;;;;2.45;2.25;;;16.00;99.90;;;;;;5116737;28;20292;-70
2022/07/02 01:46:49;;;;;;;2.70;2.50;;;16.00;99.90;;;;;;5117176;28;20291;-70
2022/07/02 01:49:16;;;;;;;4.13;2.80;;;16.00;99.90;;;;;;5116889;28;20316;-70
2022/07/02 01:51:43;;;;;;;2.60;2.40;;;16.00;99.90;;;;;;5117150;28;20299;-70
2022/07/02 01:54:10;;;;;;;2.80;2.60;;;16.00;99.90;;;;;;5116820;28;20295;-70
2022/07/02 01:56:38;;;;;;;2.83;2.63;;;16.00;99.90;;;;;;5116834;28;20200;-70
2022/07/02 01:59:06;;;;;;;2.88;2.67;;;16.00;99.90;;;;;;5116991;28;20628;-69
2022/07/02 02:01:33;;;;;;;3.05;2.85;;;16.00;99.90;;;;;;5116910;28;20328;-70
2022/07/02 02:04:00;;;;;;;3.10;2.90;;;16.00;99.90;;;;;;5116396;28;20212;-70
2022/07/02 02:06:27;;;;;;;3.25;3.05;;;16.00;99.90;;;;;;5116689;28;20211;-70
2022/07/02 02:08:54;;;;;;;3.50;3.20;;;16.00;99.90;;;;;;5116534;28;20693;-70
2022/07/02 02:11:21;;;;;;;3.25;3.05;;;15.90;99.90;;;;;;5116405;28;20774;-70
2022/07/02 02:13:49;;;;;;;2.90;2.70;;;15.80;99.90;;;;;;5116488;28;20316;-70
2022/07/02 02:16:16;;;;;;;2.80;2.60;;;15.80;99.90;;;;;;5116580;28;20300;-70
2022/07/02 02:18:43;;;;;;;3.72;3.42;;;15.80;99.90;;;;;;5116504;28;20295;-70
2022/07/02 02:21:10;;;;;;;3.00;2.80;;;15.70;99.90;;;;;;5116514;28;20232;-70
2022/07/02 02:23:37;;;;;;;3.35;3.15;;;15.70;99.90;;;;;;5116310;28;20685;-70
2022/07/02 02:26:04;;;;;;;3.58;3.28;;;15.70;99.90;;;;;;5116257;28;20620;-70
2022/07/02 02:28:31;;;;;;;3.00;2.80;;;15.70;99.90;;;;;;5116284;28;20206;-70
2022/07/02 02:30:59;;;;;;;4.10;3.35;;;15.70;99.90;;;;;;5116203;28;20311;-70
2022/07/02 02:33:26;;;;;;;2.90;2.70;;;15.70;99.90;;;;;;5116042;28;20236;-69
2022/07/02 02:35:53;;;;;;;2.67;2.47;;;15.70;99.90;;;;;;5115876;28;20729;-70
2022/07/02 02:38:20;;;;;;;2.80;2.60;;;15.60;99.90;;;;;;5116036;28;20299;-70
2022/07/02 02:40:46;;;;;;;2.90;2.70;;;15.60;99.90;;;;;;5115949;28;20225;-70
2022/07/02 02:43:13;;;;;;;3.35;3.05;;;15.60;99.90;;;;;;5115178;28;20212;-69
2022/07/02 02:45:40;;;;;;;2.95;2.75;;;15.60;99.90;;;;;;5115474;28;20773;-69
2022/07/02 02:48:08;;;;;;;3.63;3.33;;;15.60;99.90;;;;;;5116018;28;20629;-69
2022/07/02 02:50:35;;;;;;;3.53;3.20;;;15.60;99.90;;;;;;5115867;28;20320;-70
2022/07/02 02:53:03;;;;;;;3.75;3.47;;;15.50;99.90;;;;;;5115941;28;20641;-70
2022/07/02 02:55:30;;;;;;;4.32;3.38;;;15.50;99.90;;;;;;5115492;28;20294;-70
2022/07/02 02:57:57;;;;;;;2.90;2.70;;;15.60;99.90;;;;;;5115845;28;20292;-70
2022/07/02 03:00:24;;;;;;;2.92;2.72;;;15.50;99.90;;;;;;5115454;28;20776;-70
2022/07/02 03:02:51;;;;;;;3.50;3.20;;;15.50;99.90;;;;;;5115770;28;20290;-70
2022/07/02 03:05:19;;;;;;;3.60;3.30;;;15.50;99.90;;;;;;5115507;28;20622;-70
2022/07/02 03:07:46;;;;;;;3.53;3.22;;;15.50;99.90;;;;;;5115383;28;20709;-70
2022/07/02 03:10:13;;;;;;;3.20;3.00;;;15.50;99.90;;;;;;5115307;28;20238;-70
2022/07/02 03:12:40;;;;;;;3.42;3.15;;;15.50;99.90;;;;;;5115173;28;20726;-70
2022/07/02 03:15:08;;;;;;;3.10;2.90;;;15.50;99.90;;;;;;5115246;28;20291;-70
2022/07/02 03:17:34;;;;;;;3.63;3.33;;;15.50;99.90;;;;;;5115128;28;20291;-70
2022/07/02 03:20:01;;;;;;;3.25;2.75;;;15.60;99.90;;;;;;5115085;28;20307;-70
2022/07/02 03:22:30;;;;;;;3.38;3.08;;;15.50;99.90;;;;;;5115666;28;20678;-70
2022/07/02 03:24:57;;;;;;;3.60;3.30;;;15.50;99.90;;;;;;5115160;28;20287;-70
2022/07/02 03:27:24;;;;;;;3.70;3.40;;;15.40;99.90;;;;;;5114924;28;20202;-69
2022/07/02 03:29:51;;;;;;;3.55;3.30;;;15.40;99.90;;;;;;5115044;28;20243;-70
2022/07/02 03:32:18;;;;;;;3.85;3.55;;;15.40;99.90;;;;;;5114883;28;20295;-69
2022/07/02 03:34:45;;;;;;;5.60;3.85;;;15.40;99.90;;;;;;5114954;28;20295;-69
2022/07/02 03:37:12;;;;;;;3.78;3.47;;;15.40;99.90;;;;;;5115018;28;20299;-69
2022/07/02 03:39:40;;;;;;;3.75;3.30;;;15.30;99.90;;;;;;5114897;28;20306;-70
2022/07/02 03:42:07;;;;;;;3.80;3.50;;;15.20;99.90;;;;;;5114933;28;20291;-70
2022/07/02 03:44:34;;;;;;;3.67;3.47;;;15.20;99.90;;;;;;5114761;28;20733;-69
2022/07/02 03:47:01;;;;;;;3.78;3.47;;;15.20;99.90;;;;;;5114884;28;20299;-69
2022/07/02 03:49:28;;;;;;;4.10;3.75;;;15.20;99.90;;;;;;5114653;28;20311;-69
2022/07/02 03:51:55;;;;;;;3.35;3.15;;;15.30;99.90;;;;;;5114835;28;20311;-69
2022/07/02 03:54:22;;;;;;;4.00;3.70;;;15.30;99.90;;;;;;5114149;28;20294;-69
2022/07/02 03:56:50;;;;;;;4.38;4.07;;;15.20;99.90;;;;;;5114444;28;20659;-69
2022/07/02 03:59:17;;;;;;;3.65;3.35;;;15.30;99.90;;;;;;5114468;28;20239;-70
2022/07/02 04:01:44;;;;;;;4.68;3.90;;;15.30;99.90;;;;;;5114370;28;20291;-69
2022/07/02 04:04:11;;;;;;;4.07;3.75;;;15.40;99.90;;;;;;5114425;28;20206;-69
2022/07/02 04:06:37;;;;;;;3.75;3.45;;;15.40;99.90;;;;;;5114330;28;20307;-70
2022/07/02 04:09:04;;;;;;;4.20;3.90;;;15.40;99.90;;;;;;5114360;28;20297;-70
2022/07/02 04:11:31;;;;;;;4.00;3.70;;;15.40;99.90;;;;;;5114102;28;20255;-69
2022/07/02 04:13:59;;;;;;;4.18;3.88;;;15.40;99.90;;;;;;5114008;28;20295;-70
2022/07/02 04:16:26;;;;;;;4.40;4.00;;;15.40;99.90;;;;;;5114213;28;20296;-69
2022/07/02 04:18:53;;;;;;;4.68;4.28;;;15.40;99.90;;;;;;5114329;28;20210;-70
2022/07/02 04:21:20;;;;;;;5.22;4.03;;;15.40;99.90;;;;;;5114206;28;20312;-69
2022/07/02 04:23:47;;;;;;;4.50;4.10;;;15.40;99.90;;;;;;5114007;28;20291;-70
2022/07/02 04:26:13;;;;;;;4.20;3.90;;;15.40;99.90;;;;;;5114243;28;20206;-70
2022/07/02 04:28:40;;;;;;;4.82;4.43;;;15.50;99.90;;;;;;5114214;28;20291;-70
2022/07/02 04:31:08;;;;;;;4.50;4.10;;;15.40;99.90;;;;;;5114082;28;20798;-70
2022/07/02 04:33:35;;;;;;;4.50;4.10;;;15.40;99.90;;;;;;5114152;28;20630;-70
2022/07/02 04:36:02;;;;;;;4.90;4.50;;;15.40;99.90;;;;;;5113928;28;20650;-70
2022/07/02 04:38:29;;;;;;;4.88;4.43;;;15.30;99.90;;;;;;5113893;28;20592;-70
2022/07/02 04:40:56;;;;;;;5.05;4.65;;;15.20;99.90;;;;;;5114078;28;20312;-70
2022/07/02 04:43:23;;;;;;;6.40;4.90;;;15.20;99.90;;;;;;5113907;28;20733;-70
2022/07/02 04:45:49;;;;;;;5.47;4.97;;;15.20;99.90;;;;;;5113742;28;20678;-70
2022/07/02 04:48:18;;;;;;;5.32;4.93;;;15.20;99.90;;;;;;5113962;28;20209;-70
2022/07/02 04:50:45;;;;;;;4.90;4.50;;;15.20;99.90;;;;;;5113716;28;20649;-69
2022/07/02 04:53:11;;;;;;;5.90;5.40;;;15.20;99.90;;;;;;5113999;28;20294;-70
2022/07/02 04:55:38;;;;;;;5.38;4.95;;;15.10;99.90;;;;;;5113759;28;20289;-69
2022/07/02 04:58:05;;;;;;;6.68;5.95;;;15.00;99.90;;;;;;5113834;28;20676;-69
2022/07/02 05:00:32;;;;;;;7.43;6.72;;;14.90;99.90;;;;;;5113805;28;20315;-69
2022/07/02 05:02:59;;;;;;;6.93;6.32;;;14.80;99.90;;;;;;5113560;28;20289;-69
2022/07/02 05:05:27;;;;;;;6.57;5.97;;;14.80;99.90;;;;;;5113655;28;20294;-69
2022/07/02 05:07:54;;;;;;;6.53;5.93;;;14.90;99.90;;;;;;5116235;28;20301;-69
2022/07/02 05:10:21;;;;;;;6.70;6.10;;;15.00;99.90;;;;;;5117686;28;20238;-69
2022/07/02 05:12:48;;;;;;;5.90;5.40;;;15.10;99.90;;;;;;5117928;28;20634;-70
2022/07/02 05:15:15;;;;;;;8.65;5.90;;;15.10;99.90;;;;;;5117514;28;20402;-69
2022/07/02 05:17:42;;;;;;;6.25;5.65;;;15.30;99.90;;;;;;5117735;28;20300;-70
2022/07/02 05:20:10;;;;;;;6.70;6.13;;;15.40;99.90;;;;;;5117888;28;20307;-69
2022/07/02 05:22:38;;;;;;;6.35;5.68;;;15.40;99.90;;;;;;5117686;27;20207;-70
2022/07/02 05:25:06;;;;;;;8.63;7.38;;;15.50;99.90;;;;;;5117461;28;20200;-69
2022/07/02 05:27:33;;;;;;;6.68;6.10;;;15.60;99.90;;;;;;5117401;28;20626;-69
2022/07/02 05:30:00;;;;;;;5.97;5.47;;;15.60;99.90;;;;;;5117224;28;20235;-70
2022/07/02 05:32:27;;;;;;;7.10;6.40;;;15.50;99.90;;;;;;5117220;28;20295;-69
2022/07/02 05:34:54;;;;;;;8.38;6.80;;;15.40;99.90;;;;;;5117145;28;20299;-70
2022/07/02 05:37:21;;;;;;;7.97;6.88;;;15.40;99.90;;;;;;5117407;28;20295;-70
2022/07/02 05:39:49;;;;;;;7.03;6.43;;;15.50;99.90;;;;;;5117155;28;20768;-69
2022/07/02 05:42:16;;;;;;;6.43;5.82;;;15.50;99.90;;;;;;5117417;28;20299;-69
2022/07/02 05:44:42;;;;;;;5.55;5.00;;;15.60;99.90;;;;;;5116874;28;20213;-70
2022/07/02 05:47:09;;;;;;;5.40;4.90;;;15.70;99.90;;;;;;5117214;28;20295;-69
2022/07/02 05:49:36;;;;;;;4.03;3.72;;;15.80;99.90;;;;;;5117008;28;20252;-70
2022/07/02 05:52:03;;;;;;;3.80;3.50;;;15.80;99.90;;;;;;5117183;28;20593;-70
2022/07/02 05:54:30;;;;;;;4.28;3.97;;;15.90;99.90;;;;;;5116820;28;20292;-70
2022/07/02 05:56:58;;;;;;;3.50;3.17;;;16.00;99.90;;;;;;5117001;28;20565;-69
2022/07/02 05:59:25;;;;;;;3.25;3.00;;;16.10;99.90;;;;;;5116819;28;20328;-70
2022/07/02 06:01:52;;;;;;;2.67;2.47;;;16.20;99.90;;;;;;5116952;28;20239;-69
2022/07/02 06:04:19;;;;;;;3.65;3.35;;;16.30;99.90;;;;;;5116645;28;20287;-70
2022/07/02 06:09:30;;;;;;;2.50;2.30;;;16.40;99.90;;;;;;5116809;28;20262;-69
2022/07/02 06:11:58;;;;;;;2.53;2.42;;;16.50;99.90;;;;;;5116651;28;20312;-70
2022/07/02 06:14:25;;;;;;;7.15;2.83;;;16.60;99.90;;;;;;5116516;28;20237;-70
2022/07/02 06:16:52;;;;;;;2.97;2.78;;;16.60;99.90;;;;;;5116640;28;20289;-70
2022/07/02 06:19:19;;;;;;;2.47;2.30;;;16.70;99.90;;;;;;5116275;28;20604;-69
2022/07/02 06:21:45;;;;;;;2.63;2.42;;;16.70;99.90;;;;;;5116598;28;20225;-70
2022/07/02 06:24:12;;;;;;;2.40;2.20;;;16.70;99.90;;;;;;5116231;28;20292;-70
2022/07/02 06:26:39;;;;;;;2.50;2.40;;;16.80;99.90;;;;;;5116194;28;20292;-70
2022/07/02 06:29:07;;;;;;;3.10;2.80;;;16.80;99.90;;;;;;5116423;28;20287;-70
2022/07/02 06:31:34;;;;;;;3.67;3.38;;;16.70;99.90;;;;;;5116282;28;20316;-70
2022/07/02 06:34:01;;;;;;;2.35;2.25;;;16.70;99.90;;;;;;5115964;28;20281;-70
2022/07/02 06:36:28;;;;;;;2.25;2.05;;;16.80;99.90;;;;;;5116291;28;20294;-70
2022/07/02 06:38:55;;;;;;;2.00;1.90;;;16.90;99.90;;;;;;5116137;28;20575;-70
2022/07/02 06:44:09;;;;;;;3.67;2.25;;;17.10;99.90;;;;;;5116029;28;20579;-70
2022/07/02 06:46:36;;;;;;;2.33;2.13;;;17.20;99.90;;;;;;5116113;28;20608;-70
2022/07/02 06:49:03;;;;;;;2.10;2.00;;;17.40;99.90;;;;;;5116016;28;20296;-70
2022/07/02 06:51:29;;;;;;;2.00;1.90;;;17.60;99.90;;;;;;5115772;28;20312;-70
2022/07/02 06:54:00;;;;;;;2.30;1.92;;;17.90;99.90;;;;;;5115748;28;20291;-70
2022/07/02 06:56:28;;;;;;;1.70;1.60;;;17.90;99.90;;;;;;5115912;28;20208;-70
2022/07/02 06:58:55;;;;;;;1.60;1.50;;;18.00;99.90;;;;;;5115871;28;20205;-70
2022/07/02 07:01:23;;;;;;;1.50;1.50;;;18.20;99.90;;;;;;5115741;28;20236;-70
2022/07/02 07:03:50;;;;;;;1.97;1.87;;;18.50;99.90;;;;;;5115530;28;20289;-70
2022/07/02 07:06:18;;;;;;;1.77;1.67;;;18.90;99.90;;;;;;5115211;28;20536;-70
2022/07/02 07:08:45;;;;;;;1.65;1.55;;;19.40;99.90;;;;;;5114725;28;20443;-70
2022/07/02 07:11:12;;;;;;;1.67;1.57;;;19.60;99.90;;;;;;5114571;28;20314;-70
2022/07/02 07:13:39;;;;;;;1.97;1.50;;;19.80;99.90;;;;;;5114615;28;20522;-70
2022/07/02 07:16:06;;;;;;;1.60;1.50;;;19.80;99.90;;;;;;5114377;28;20527;-70
2022/07/02 07:18:34;;;;;;;1.67;1.57;;;19.80;99.90;;;;;;5114423;28;20446;-70
2022/07/02 07:21:01;;;;;;;1.80;1.70;;;19.80;99.90;;;;;;5114558;28;20881;-70
2022/07/02 07:23:28;;;;;;;1.50;1.50;;;19.90;99.90;;;;;;5114379;28;20484;-70
2022/07/02 07:25:55;;;;;;;1.93;1.60;;;20.20;99.90;;;;;;5114375;28;20440;-70
2022/07/02 07:28:26;;;;;;;1.27;1.27;;;20.30;99.90;;;;;;5114452;28;20533;-70
2022/07/02 07:30:53;;;;;;;1.57;1.47;;;20.30;99.90;;;;;;5113503;28;20517;-70
2022/07/02 07:33:20;;;;;;;1.30;1.30;;;20.30;99.90;;;;;;5114521;28;20524;-70
2022/07/02 07:35:49;;;;;;;1.70;1.60;;;20.30;99.90;;;;;;5114140;28;20439;-70
2022/07/02 07:38:16;;;;;;;1.40;1.30;;;20.10;99.90;;;;;;5114451;28;20528;-70
2022/07/02 07:40:42;;;;;;;1.50;1.40;;;20.00;99.90;;;;;;5114073;28;20556;-70
2022/07/02 07:43:09;;;;;;;2.00;1.63;;;19.90;99.90;;;;;;5114200;28;20802;-70
2022/07/02 07:45:36;;;;;;;1.40;1.40;;;19.70;99.90;;;;;;5113657;28;20542;-70
2022/07/02 07:48:04;;;;;;;1.90;1.80;;;19.70;99.90;;;;;;5114069;28;20540;-70
2022/07/02 07:50:31;;;;;;;1.40;1.30;;;19.70;99.90;;;;;;5113941;28;20563;-70
2022/07/02 07:52:59;;;;;;;2.80;1.40;;;20.00;99.90;;;;;;5113823;28;20991;-70
2022/07/02 07:55:26;;;;;;;1.40;1.20;;;20.60;99.90;;;;;;5113764;28;20508;-70
2022/07/02 07:57:53;;;;;;;1.40;1.40;;;21.70;99.90;;;;;;5113885;28;20525;-70
2022/07/02 08:00:20;;;;;;;1.90;1.40;;;22.40;99.90;;;;;;5113758;28;20547;-70
2022/07/02 08:02:46;;;;;;;2.70;1.50;;;22.60;99.90;;;;;;5114316;28;20541;-70
2022/07/02 08:05:13;;;;;;;1.30;1.17;;;23.00;99.10;;;;;;5113623;28;20527;-70
2022/07/02 08:07:41;;;;;;;2.10;1.40;;;24.00;99.90;;;;;;5075069;28;1100800;-70
2022/07/02 08:10:11;;;;;;;1.50;1.40;;;24.70;98.40;;;;;;5114634;28;20221;-70
2022/07/02 08:12:39;;;;;;;1.80;1.70;;;24.80;94.70;;;;;;5114050;28;20992;-70
2022/07/02 08:15:06;;;;;;;1.00;1.00;;;24.70;93.80;;;;;;5114172;28;20443;-70
2022/07/02 08:17:33;;;;;;;1.43;1.33;;;24.10;92.50;;;;;;5114647;28;21000;-70
2022/07/02 08:20:02;;;;;;;2.90;1.33;;;23.60;93.60;;;;;;5114193;28;20571;-70
2022/07/02 08:22:29;;;;;;;1.73;1.60;;;23.30;95.00;;;;;;5114371;28;20435;-70
2022/07/02 08:24:56;;;;;;;1.20;1.10;;;23.20;96.60;;;;;;5113947;28;20492;-71
2022/07/02 08:27:25;;;;;;;1.87;1.77;;;23.20;98.30;;;;;;5114168;28;20441;-70
2022/07/02 08:29:52;;;;;;;1.30;1.20;;;22.80;95.40;;;;;;5114180;28;20467;-70
2022/07/02 08:32:19;;;;;;;1.30;1.30;;;22.80;94.60;;;;;;5114228;28;20821;-70
2022/07/02 08:34:46;;;;;;;1.23;1.23;;;22.90;93.60;;;;;;5113736;28;20526;-70
2022/07/02 08:37:13;;;;;;;2.70;1.47;;;23.10;93.40;;;;;;5114127;28;20466;-70
2022/07/02 08:39:40;;;;;;;1.67;1.57;;;23.40;96.70;;;;;;5113992;28;20505;-70
2022/07/02 08:42:09;;;;;;;1.50;1.40;;;24.00;95.10;;;;;;5112820;28;20437;-70
2022/07/02 08:44:39;;;;;;;1.37;1.37;;;24.40;93.80;;;;;;5113937;28;20518;-70
2022/07/02 08:47:09;;;;;;;1.17;1.17;;;24.80;91.40;;;;;;5114078;28;20522;-70
2022/07/02 08:49:39;;;;;;;1.00;1.00;;;25.70;91.50;;;;;;5113915;28;20878;-71
2022/07/02 08:52:07;;;;;;;1.60;1.50;;;26.70;91.40;;;;;;5113611;28;20575;-71
2022/07/02 08:54:35;;;;;;;1.87;1.77;;;26.90;90.80;;;;;;5113816;28;20807;-71
2022/07/02 09:00:09;;;;;;;2.90;1.50;;;27.30;77.30;;;;;;5113821;28;20454;-71
2022/07/02 09:02:37;;;;;;;1.23;1.17;;;28.10;81.80;;;;;;5113869;28;20620;-71
2022/07/02 09:05:05;;;;;;;1.50;1.40;;;29.30;79.50;;;;;;5113716;28;20435;-71
2022/07/02 09:07:35;;;;;;;2.33;2.23;;;30.90;72.70;;;;;;5113555;28;21000;-71
2022/07/02 09:10:02;;;;;;;3.17;1.33;;;31.90;55.60;;;;;;5113520;28;20550;-71
2022/07/02 09:12:30;;;;;;;1.10;1.10;;;33.10;56.30;;;;;;5113440;28;21087;-71
2022/07/02 09:14:57;;;;;;;1.30;1.30;;;35.00;52.70;;;;;;5113412;28;20812;-72
2022/07/02 09:17:26;;;;;;;1.33;1.20;;;35.70;49.90;;;;;;5113722;28;20999;-71
2022/07/02 09:19:53;;;;;;;1.13;1.13;;;36.10;48.10;;;;;;5113421;28;20939;-69
2022/07/02 09:22:19;;;;;;;1.30;1.20;;;36.20;45.60;;;;;;5113484;28;20526;-69
2022/07/02 09:24:46;;;;;;;1.10;1.10;;;36.10;45.40;;;;;;5109090;28;20555;-71
2022/07/02 09:27:15;;;;;;;1.10;1.10;;;36.40;45.70;;;;;;5100342;28;20539;-70
2022/07/02 09:29:43;;;;;;;1.23;0.87;;;35.80;40.90;;;;;;5091937;28;20475;-69
2022/07/02 09:32:10;;;;;;;1.00;1.00;;;35.50;40.30;;;;;;5091751;28;21100;-70
2022/07/02 09:34:43;;;;;;;1.20;1.00;;;35.60;39.40;;;;;;5091829;28;20532;-69
2022/07/02 09:37:14;;;;;;;1.20;1.20;;;36.40;39.90;;;;;;5091701;28;20447;-72
2022/07/02 09:39:43;;;;;;;1.20;1.20;;;36.30;38.40;;;;;;5092374;28;20811;-71
2022/07/02 09:42:10;;;;;;;1.00;1.00;;;36.30;37.50;;;;;;5091877;28;20493;-71
2022/07/02 09:44:45;;;;;;;0.93;0.90;;;36.70;37.20;;;;;;5092090;28;20530;-71
2022/07/02 09:47:12;;;;;;;5.13;1.00;;;37.00;35.30;;;;;;5092065;28;20798;-71
2022/07/02 09:49:48;;;;;;;0.90;0.90;;;37.00;36.70;;;;;;5091497;28;20536;-71
2022/07/02 09:52:15;;;;;;;1.70;0.90;;;36.60;34.60;;;;;;5091678;28;20475;-71
2022/07/02 09:54:43;;;;;;;1.27;1.10;;;36.10;34.50;;;;;;5095074;28;20484;-72
2022/07/02 09:57:12;;;;;;;1.60;0.90;;;36.40;38.40;;;;;;5095168;28;20484;-71
2022/07/02 09:59:40;;;;;;;1.13;1.07;;;36.80;37.40;;;;;;5095410;28;20555;-71
2022/07/02 10:02:21;;;;;;;1.20;1.20;;;37.20;37.80;;;;;;5095636;28;21000;-72
2022/07/02 10:04:51;;;;;;;1.00;1.00;;;37.20;36.00;;;;;;5095472;28;20447;-72
2022/07/02 10:07:19;;;;;;;2.27;1.00;;;37.40;37.30;;;;;;5095035;28;20956;-72
2022/07/02 10:09:46;;;;;;;1.80;1.20;;;38.30;38.80;;;;;;5094852;28;20464;-72
2022/07/02 10:12:14;;;;;;;1.40;1.40;;;38.70;35.40;;;;;;5095047;28;20936;-71
2022/07/02 10:14:43;;;;;;;1.80;1.70;;;37.80;37.80;;;;;;5095162;28;20543;-72
2022/07/02 10:17:11;;;;;;;1.53;1.20;;;37.20;35.20;;;;;;5095025;28;20527;-71
2022/07/02 10:19:39;;;;;;;1.80;1.70;;;36.30;35.40;;;;;;5094626;28;20500;-71
2022/07/02 10:22:08;;;;;;;1.90;1.37;;;36.60;38.50;;;;;;5095010;28;20602;-72
2022/07/02 10:24:36;;;;;;;0.90;0.90;;;36.50;39.20;;;;;;5095113;28;20527;-71
2022/07/02 10:27:04;;;;;;;1.57;1.13;;;36.80;35.30;;;;;;5095503;28;20452;-72
2022/07/02 10:29:31;;;;;;;1.20;1.20;;;36.90;35.70;;;;;;5094632;28;20535;-72
2022/07/02 10:32:07;;;;;;;1.20;1.20;;;36.60;38.80;;;;;;5094924;28;20576;-70
2022/07/02 10:34:47;;;;;;;1.40;1.30;;;36.30;36.30;;;;;;5094742;28;20448;-71
2022/07/02 10:37:16;;;;;;;1.07;1.07;;;36.10;40.30;;;;;;5093806;28;20850;-70
2022/07/02 10:39:43;;;;;;;1.13;1.10;;;35.40;37.00;;;;;;5094615;28;20492;-70
2022/07/02 10:42:11;;;;;;;1.20;1.00;;;34.40;39.50;;;;;;5095226;28;20937;-70
2022/07/02 10:44:39;;;;;;;1.13;1.13;;;33.50;39.80;;;;;;5094450;28;20522;-73
2022/07/02 10:47:06;;;;;;;1.30;1.20;;;32.40;39.40;;;;;;5094890;28;20447;-73
2022/07/02 10:49:34;;;;;;;1.57;1.47;;;31.60;45.00;;;;;;5094534;28;20526;-72
2022/07/02 10:52:03;;;;;;;1.23;1.23;;;31.00;43.40;;;;;;5094607;28;20566;-71
2022/07/02 10:54:34;;;;;;;1.37;1.33;;;30.30;46.60;;;;;;5094595;28;20526;-73
2022/07/02 10:57:01;;;;;;;1.43;1.30;;;29.90;45.10;;;;;;5094670;28;20641;-72
2022/07/02 10:59:34;;;;;;;1.30;1.20;;;29.50;48.40;;;;;;5094047;28;20531;-73
2022/07/02 11:02:03;;;;;;;1.20;1.20;;;29.00;50.90;;;;;;5094656;28;20437;-73
2022/07/02 11:04:30;;;;;;;1.27;1.23;;;28.80;48.90;;;;;;5092747;28;20533;-71
2022/07/02 11:07:07;;;;;;;1.13;1.13;;;28.50;49.30;;;;;;5093632;28;20875;-73
2022/07/02 11:09:46;;;;;;;1.03;1.03;;;28.30;50.30;;;;;;5093524;28;20919;-73
2022/07/02 11:12:17;;;;;;;1.20;1.20;;;28.20;53.10;;;;;;5093805;28;20486;-73
2022/07/02 11:14:54;;;;;;;1.30;1.30;;;28.10;49.50;;;;;;5093651;28;20441;-72
2022/07/02 11:17:23;;;;;;;1.40;1.30;;;28.00;51.40;;;;;;5093857;28;20448;-73
2022/07/02 11:19:54;;;;;;;1.20;1.20;;;27.90;52.40;;;;;;5093373;28;20471;-73
2022/07/02 11:22:21;;;;;;;3.17;1.67;;;27.90;53.10;;;;;;5093508;28;20452;-73
2022/07/02 11:24:54;;;;;;;1.43;1.37;;;27.70;48.20;;;;;;5093345;28;20935;-73
2022/07/02 11:27:21;;;;;;;1.63;1.30;;;27.50;49.10;;;;;;5093581;28;20443;-73
2022/07/02 11:29:54;;;;;;;3.20;1.50;;;27.50;51.60;;;;;;5093479;28;20902;-72
2022/07/02 11:32:21;;;;;;;1.10;1.10;;;27.60;51.80;;;;;;5093157;28;20567;-72
2022/07/02 11:34:58;;;;;;;1.00;1.00;;;27.50;50.50;;;;;;5092804;28;20455;-72
2022/07/02 11:37:26;;;;;;;1.27;1.20;;;27.30;50.00;;;;;;5093566;28;20451;-72
2022/07/02 11:39:54;;;;;;;3.27;2.00;;;27.50;51.90;;;;;;5093656;28;20468;-73
2022/07/02 11:42:35;;;;;;;1.33;1.23;;;27.50;51.90;;;;;;5093605;28;20527;-73
2022/07/02 11:45:02;;;;;;;1.43;1.33;;;27.50;50.00;;;;;;5092762;28;20539;-72
2022/07/02 11:47:29;;;;;;;1.70;1.30;;;27.50;50.60;;;;;;5093245;28;20754;-73
2022/07/02 11:49:55;;;;;;;1.43;1.37;;;27.50;50.00;;;;;;5093026;28;20547;-72
2022/07/02 11:52:22;;;;;;;1.80;1.70;;;27.60;49.30;;;;;;5093015;28;20474;-72
2022/07/02 11:54:49;;;;;;;1.30;1.30;;;27.50;49.50;;;;;;5092430;28;20519;-71
2022/07/02 11:57:17;;;;;;;1.00;1.00;;;27.60;52.30;;;;;;5092936;28;20440;-72
2022/07/02 11:59:51;;;;;;;2.00;1.77;;;27.70;51.50;;;;;;5092667;28;21055;-71
2022/07/02 12:02:18;;;;;;;1.20;1.20;;;27.80;49.70;;;;;;5093122;28;20919;-72
2022/07/02 12:04:46;;;;;;;1.17;1.10;;;27.80;50.70;;;;;;5092946;28;20477;-72
2022/07/02 12:07:13;;;;;;;1.43;1.20;;;27.80;50.80;;;;;;5092787;28;20463;-71
2022/07/02 12:09:41;;;;;;;1.23;1.23;;;28.10;51.90;;;;;;5092518;28;20461;-72
2022/07/02 12:12:09;;;;;;;1.47;1.37;;;28.10;50.80;;;;;;5092457;28;20568;-71
2022/07/02 12:14:37;;;;;;;1.30;1.30;;;27.90;48.00;;;;;;5092576;28;20528;-71
2022/07/02 12:17:09;;;;;;;2.63;2.53;;;27.80;49.70;;;;;;5092546;28;20443;-71
2022/07/02 12:19:36;;;;;;;1.37;1.27;;;27.70;49.70;;;;;;5093880;28;20560;-71
2022/07/02 12:22:05;;;;;;;1.20;1.20;;;27.60;48.90;;;;;;5094113;28;20440;-69
2022/07/02 12:24:33;;;;;;;1.23;1.23;;;27.50;48.70;;;;;;5093636;28;20448;-71
2022/07/02 12:27:01;;;;;;;1.43;1.33;;;27.50;53.60;;;;;;5093745;28;20536;-70
2022/07/02 12:32:17;;;;;;;1.27;1.27;;;27.50;50.80;;;;;;5093765;28;20467;-70
2022/07/02 12:34:45;;;;;;;1.57;1.47;;;27.50;49.90;;;;;;5093682;28;20530;-70
2022/07/02 12:37:21;;;;;;;1.70;1.60;;;27.40;50.70;;;;;;5093812;28;20463;-70
2022/07/02 12:39:49;;;;;;;1.23;1.23;;;27.50;51.60;;;;;;5093625;28;20467;-71
2022/07/02 12:42:19;;;;;;;1.30;1.30;;;27.60;50.70;;;;;;5093851;28;20530;-70
2022/07/02 12:44:57;;;;;;;1.53;1.40;;;27.70;50.60;;;;;;5093433;28;20444;-70
2022/07/02 12:47:30;;;;;;;1.33;1.20;;;27.50;50.50;;;;;;5093775;28;20440;-70
2022/07/02 12:49:59;;;;;;;1.23;1.23;;;27.30;50.60;;;;;;5093708;28;20542;-70
2022/07/02 12:52:27;;;;;;;1.50;1.40;;;27.20;51.00;;;;;;5093595;28;20475;-70
2022/07/02 12:54:54;;;;;;;1.63;1.53;;;27.10;51.00;;;;;;5093527;28;20479;-70
2022/07/02 12:57:22;;;;;;;1.30;1.27;;;27.20;54.60;;;;;;5093604;28;20545;-70
2022/07/02 12:59:51;;;;;;;1.60;1.50;;;27.20;52.40;;;;;;5093334;28;20555;-70
2022/07/02 13:02:23;;;;;;;1.67;1.60;;;27.20;52.70;;;;;;5093617;28;20447;-70
2022/07/02 13:04:51;;;;;;;1.70;1.60;;;27.30;54.00;;;;;;5093456;28;20535;-70
2022/07/02 13:07:18;;;;;;;1.37;1.37;;;27.40;54.80;;;;;;5093226;28;21037;-70